Date,TemperatureHighF,TemperatureAvgF,TemperatureLowF,DewpointHighF,DewpointAvgF,DewpointLowF,HumidityHigh,HumidityAvg,HumidityLow,PressureMaxIn,PressureMinIn,WindSpeedMaxMPH,WindSpeedAvgMPH,GustSpeedMaxMPH,PrecipitationSumIn
2013-1-1,33.0,28.4,20.0,31.0,23.0,13.0,97,80,61,0.00,40.00,10,4,16,10.66
2013-1-2,24.0,18.5,13.0,15.0,12.3,10.0,87,77,60,0.00,40.00,7,2,12,0.00
2013-1-3,32.0,21.8,11.0,21.0,13.7,6.0,85,71,47,0.00,40.00,15,5,19,0.00
2013-1-4,33.0,28.7,24.0,22.0,19.2,16.0,75,67,55,0.00,40.00,17,9,29,0.00
2013-1-5,37.0,29.1,17.0,27.0,21.4,14.0,88,73,60,0.00,40.00,8,3,15,0.00
2013-1-6,38.0,33.6,27.0,33.0,27.0,21.0,88,77,71,0.00,40.00,14,6,23,1.69
2013-1-7,37.0,30.8,27.0,25.0,23.9,22.0,86,76,61,0.00,40.00,8,4,12,0.00
2013-1-8,46.0,34.9,23.0,32.0,25.8,19.0,85,70,55,0.00,40.00,7,3,13,0.00
2013-1-9,49.0,41.3,34.0,41.0,33.2,25.0,92,73,59,0.00,40.00,12,4,19,2.20
2013-1-10,41.0,35.7,28.0,30.0,28.7,26.0,91,76,63,0.00,40.00,10,4,20,0.00
2013-1-11,62.0,52.0,41.0,53.0,45.6,30.0,95,79,62,0.00,40.00,15,7,32,5.59
2013-1-12,65.0,58.8,49.0,60.0,55.2,46.0,95,88,73,0.00,40.00,11,5,16,0.00
2013-1-13,65.0,58.7,39.0,60.0,54.8,37.0,97,87,73,0.00,40.00,21,8,32,6.64
2013-1-14,39.0,30.7,26.0,37.0,23.9,20.0,92,75,64,0.00,40.00,11,6,17,0.00
2013-1-15,33.0,28.9,24.0,22.0,20.8,19.0,84,72,61,0.00,40.00,10,5,16,0.00
2013-1-16,36.0,32.8,31.0,29.0,25.1,22.0,88,73,65,0.00,40.00,9,5,18,0.00
2013-1-17,38.0,33.8,27.0,29.0,25.3,15.0,84,71,60,0.00,40.00,13,4,24,0.00
2013-1-18,35.0,27.6,19.0,22.0,15.3,9.0,78,60,48,0.00,40.00,13,6,24,0.00
2013-1-19,53.0,43.3,35.0,27.0,23.4,21.0,59,46,30,0.00,40.00,20,10,33,0.00
2013-1-20,44.0,32.4,24.0,31.0,15.9,9.0,61,50,32,0.00,40.00,19,9,35,0.00
2013-1-21,24.0,20.3,10.0,17.0,8.4,-4.0,79,60,48,0.00,40.00,19,8,26,1.65
2013-1-22,16.0,10.7,6.0,-2.0,-4.6,-6.0,59,49,39,0.00,40.00,14,8,22,0.00
2013-1-23,21.0,15.5,11.0,14.0,2.1,-3.0,86,56,36,0.00,40.00,12,6,19,3.30
2013-1-24,21.0,17.4,13.0,14.0,8.2,4.0,87,67,54,0.00,40.00,16,5,26,0.55
2013-1-25,23.0,18.9,16.0,20.0,10.9,3.0,88,71,52,0.00,40.00,9,5,15,3.89
2013-1-26,28.0,25.4,19.0,21.0,17.6,11.0,87,73,60,0.00,40.00,9,4,12,0.00
2013-1-27,34.0,25.7,15.0,28.0,15.7,8.0,85,66,54,0.00,40.00,9,4,14,0.55
2013-1-28,50.0,43.0,31.0,49.0,41.3,28.0,97,93,85,0.00,40.00,10,5,16,0.55
2013-1-29,68.0,58.2,49.0,55.0,51.5,48.0,98,80,60,0.00,40.00,14,7,24,0.00
2013-1-30,66.0,56.4,35.0,57.0,49.6,27.0,97,78,66,0.00,40.00,34,12,52,8.43
2013-1-31,35.0,25.6,20.0,29.0,16.7,8.0,91,70,51,0.00,40.00,24,12,35,0.55
2013-2-1,20.0,12.7,8.0,14.0,2.6,-2.0,82,64,55,0.00,40.00,17,9,27,0.00
2013-2-2,27.0,19.7,10.0,24.0,14.9,3.0,92,81,68,0.00,40.00,11,5,19,4.40
2013-2-3,26.0,22.1,20.0,22.0,16.1,9.0,90,78,60,0.00,40.00,15,6,21,3.30
2013-2-4,30.0,22.9,14.0,29.0,18.2,10.0,94,83,56,0.00,40.00,10,3,16,1.10
2013-2-5,32.0,29.4,27.0,29.0,24.8,21.0,95,83,69,0.00,40.00,9,3,15,0.00
2013-2-6,36.0,31.6,26.0,28.0,21.8,17.0,83,67,49,0.00,40.00,9,3,14,0.00
2013-2-7,49.0,37.3,26.0,32.0,25.7,18.0,75,63,46,0.00,40.00,8,4,17,0.00
2013-2-8,46.0,35.3,27.0,40.0,27.9,16.0,94,74,63,0.00,40.00,18,10,27,2.79
2013-2-9,36.0,28.6,21.0,19.0,16.8,14.0,84,61,43,0.00,40.00,12,4,18,0.00
2013-2-10,50.0,38.9,29.0,40.0,23.5,16.0,75,54,39,0.00,40.00,14,7,24,1.10
2013-2-11,54.0,46.7,39.0,47.0,34.8,23.0,90,65,41,0.00,40.00,26,13,38,0.00
2013-2-12,47.0,38.1,32.0,26.0,24.1,22.0,71,57,41,0.00,40.00,18,7,32,0.00
2013-2-13,34.0,30.8,25.0,30.0,25.9,23.0,94,82,68,0.00,40.00,6,3,10,1.10
2013-2-14,46.0,35.3,25.0,37.0,30.7,24.0,93,84,69,0.00,40.00,12,5,31,0.00
2013-2-15,37.0,32.3,28.0,31.0,27.2,22.0,94,81,69,0.00,40.00,10,4,17,1.10
2013-2-16,28.0,23.8,18.0,24.0,16.2,8.0,89,73,49,0.00,40.00,17,5,23,0.00
2013-2-17,25.0,18.7,14.0,10.0,7.1,2.0,76,61,44,0.00,40.00,12,5,18,0.00
2013-2-18,51.0,34.2,17.0,31.0,18.3,7.0,68,52,41,0.00,40.00,14,8,22,0.00
2013-2-19,50.0,33.1,22.0,38.0,25.4,11.0,95,73,44,0.00,40.00,24,13,42,3.89
2013-2-20,22.0,20.5,17.0,15.0,9.8,6.0,76,63,52,0.00,40.00,18,9,27,0.55
2013-2-21,28.0,23.8,21.0,17.0,14.2,11.0,76,66,60,0.00,40.00,10,5,16,0.00
2013-2-22,43.0,34.0,26.0,39.0,28.8,16.0,94,81,66,0.00,40.00,13,6,26,0.00
2013-2-23,42.0,36.9,31.0,32.0,27.3,24.0,85,69,50,0.00,40.00,12,4,19,0.00
2013-2-24,34.0,30.3,27.0,24.0,20.0,18.0,78,65,53,0.00,40.00,9,4,19,0.00
2013-2-25,45.0,34.9,23.0,24.0,21.5,19.0,85,59,40,0.00,40.00,10,4,15,0.00
2013-2-26,42.0,37.1,34.0,40.0,28.9,21.0,96,73,54,0.00,40.00,14,8,29,4.99
2013-2-27,40.0,36.8,33.0,36.0,32.8,29.0,92,85,79,0.00,40.00,17,10,27,1.10
2013-2-28,37.0,33.9,31.0,33.0,30.8,28.0,95,88,80,0.00,40.00,13,7,22,5.62
2013-3-1,34.0,31.4,28.0,29.0,23.5,17.0,84,72,57,0.00,40.00,10,6,16,0.00
2013-3-2,29.0,27.0,26.0,23.0,20.3,17.0,88,76,63,0.00,40.00,11,6,19,1.10
2013-3-3,30.0,26.0,24.0,20.0,16.6,13.0,84,68,49,0.00,40.00,10,4,15,0.55
2013-3-4,41.0,30.0,18.0,19.0,15.8,11.0,85,58,32,0.00,40.00,9,2,15,0.00
2013-3-5,41.0,35.5,31.0,31.0,24.5,18.0,95,65,49,0.00,40.00,14,7,22,6.17
2013-3-6,39.0,35.0,33.0,32.0,30.3,27.0,96,83,72,0.00,40.00,9,5,14,8.34
2013-3-7,41.0,35.5,32.0,29.0,26.6,26.0,79,70,56,0.00,40.00,9,4,14,0.00
2013-3-8,45.0,36.9,29.0,28.0,24.9,21.0,78,62,43,0.00,40.00,9,5,14,0.00
2013-3-9,57.0,42.4,30.0,31.0,27.2,24.0,79,57,33,0.00,40.00,10,4,15,0.00
2013-3-10,68.0,59.0,50.0,34.0,32.0,30.0,48,36,27,0.00,40.00,10,6,16,0.00
2013-3-11,63.0,53.9,42.0,51.0,41.0,34.0,94,64,33,0.00,40.00,20,8,31,1.10
2013-3-12,42.0,37.2,34.0,34.0,29.5,26.0,91,73,60,0.00,40.00,15,8,22,0.00
2013-3-13,34.0,30.6,28.0,32.0,22.4,15.0,95,72,51,0.00,40.00,17,9,29,1.10
2013-3-14,43.0,32.2,24.0,21.0,16.1,13.0,71,52,35,0.00,40.00,15,5,23,0.00
2013-3-15,50.0,39.2,29.0,41.0,28.4,20.0,92,65,53,0.00,40.00,11,4,17,2.75
2013-3-16,54.0,42.9,32.0,46.0,38.9,27.0,95,86,71,0.00,40.00,14,6,21,0.55
2013-3-17,39.0,34.4,32.0,28.0,24.7,21.0,83,68,51,0.00,40.00,11,6,16,0.00
2013-3-18,50.0,40.4,32.0,49.0,37.4,24.0,97,89,69,0.00,40.00,17,8,28,4.44
2013-3-19,42.0,36.0,30.0,35.0,21.5,13.0,80,57,37,0.00,40.00,25,13,39,0.00
2013-3-20,37.0,31.4,24.0,19.0,13.9,9.0,63,48,39,0.00,40.00,18,9,28,0.00
2013-3-21,30.0,24.6,19.0,19.0,12.0,7.0,77,58,44,0.00,40.00,15,6,22,0.55
2013-3-22,42.0,31.7,23.0,19.0,15.7,14.0,72,53,33,0.00,40.00,13,5,20,0.00
2013-3-23,48.0,36.0,24.0,24.0,19.8,17.0,79,54,31,0.00,40.00,11,3,17,0.00
2013-3-24,37.0,33.7,31.0,31.0,24.0,18.0,95,68,48,0.00,40.00,17,8,27,1.65
2013-3-25,35.0,32.9,32.0,33.0,30.9,29.0,97,92,81,0.00,40.00,0,0,0,9.43
2013-3-26,42.0,36.1,33.0,31.0,27.3,19.0,93,72,42,0.00,40.00,0,0,0,0.55
2013-3-27,43.0,37.5,33.0,29.0,24.6,18.0,87,61,38,0.00,40.00,0,0,0,0.55
2013-3-28,49.0,39.6,30.0,25.0,23.2,20.0,70,53,37,0.00,40.00,0,0,0,0.00
2013-3-29,53.0,41.5,29.0,29.0,26.0,23.0,83,56,34,0.00,40.00,0,0,0,0.00
2013-3-30,58.0,44.6,30.0,31.0,25.3,21.0,82,51,25,0.00,40.00,0,0,0,0.00
2013-3-31,55.0,47.9,42.0,46.0,36.7,-99.9,93,69,39,0.00,40.00,0,0,0,6.68
2013-4-1,49.0,41.0,34.0,39.0,22.5,13.0,76,49,31,0.00,40.00,0,0,0,0.00
2013-4-2,44.0,34.6,26.0,16.0,13.4,11.0,61,42,27,0.00,40.00,0,0,0,0.00
2013-4-3,45.0,35.8,25.0,15.0,12.3,8.0,66,39,25,0.00,40.00,0,0,0,0.00
2013-4-4,54.0,40.3,29.0,23.0,14.1,9.0,48,35,20,0.00,40.00,0,0,0,0.00
2013-4-5,57.0,45.1,32.0,31.0,23.2,19.0,65,43,26,0.00,40.00,0,0,0,0.00
2013-4-6,62.0,46.4,32.0,22.0,16.5,10.0,56,32,16,0.00,40.00,0,0,0,0.00
2013-4-7,73.0,63.7,55.0,46.0,37.4,18.0,52,38,22,0.00,40.00,21,4,30,0.00
2013-4-8,73.0,63.8,54.0,52.0,49.1,40.0,81,60,43,0.00,40.00,16,6,29,0.00
2013-4-9,82.0,68.8,55.0,57.0,53.2,51.0,85,60,37,0.00,40.00,17,6,30,0.00
2013-4-10,82.0,70.9,61.0,62.0,58.1,54.0,86,65,48,0.00,40.00,19,8,33,0.00
2013-4-11,70.0,62.5,56.0,61.0,57.8,54.0,97,85,73,0.00,40.00,14,5,20,3.93
2013-4-12,60.0,49.5,43.0,59.0,42.6,31.0,98,78,56,0.00,40.00,19,8,32,2.20
2013-4-13,54.0,45.3,41.0,36.0,33.1,31.0,72,62,47,0.00,40.00,17,6,27,0.00
2013-4-14,67.0,50.7,36.0,40.0,35.0,31.0,83,58,34,0.00,40.00,0,0,0,0.00
2013-4-15,70.0,62.5,51.0,52.0,46.4,37.0,66,56,40,0.00,40.00,0,0,0,0.00
2013-4-16,79.0,64.4,58.0,63.0,55.6,50.0,97,74,52,0.00,40.00,15,1,25,1.65
2013-4-17,68.0,59.9,55.0,59.0,55.8,51.0,97,86,73,0.00,40.00,11,1,20,0.55
2013-4-18,86.0,72.3,60.0,62.0,57.0,51.0,90,62,29,0.00,40.00,16,3,29,0.00
2013-4-19,76.0,54.1,41.0,61.0,41.5,28.0,97,63,46,0.00,40.00,22,14,37,0.00
2013-4-20,47.0,40.9,35.0,33.0,26.4,22.0,89,58,39,0.00,40.00,17,8,27,0.00
2013-4-21,54.0,43.5,33.0,27.0,23.7,20.0,70,47,27,0.00,40.00,0,0,0,0.00
2013-4-22,69.0,55.3,41.0,39.0,31.2,21.0,49,40,30,0.00,40.00,0,0,0,0.00
2013-4-23,72.0,61.2,49.0,47.0,36.7,27.0,54,40,31,0.00,40.00,0,0,0,0.00
2013-4-24,64.0,52.8,37.0,56.0,44.5,33.0,98,75,52,0.00,40.00,0,0,0,3.85
2013-4-25,56.0,44.7,34.0,36.0,32.4,22.0,94,65,38,0.00,40.00,0,0,0,0.00
2013-4-26,62.0,49.1,34.0,35.0,30.0,26.0,80,50,27,0.00,40.00,0,0,0,0.00
2013-4-27,72.0,58.5,44.0,44.0,34.6,29.0,74,42,22,0.00,40.00,0,0,0,0.00
2013-4-28,64.0,58.0,53.0,58.0,52.4,-99.9,97,85,56,0.00,40.00,0,0,0,2.75
2013-4-29,64.0,59.5,56.0,57.0,55.3,53.0,97,87,70,0.00,40.00,0,0,0,0.00
2013-4-30,76.0,64.0,50.0,55.0,52.8,48.0,96,70,45,0.00,40.00,0,0,0,0.00
2013-5-1,81.0,70.2,59.0,59.0,53.6,50.0,77,57,37,0.00,40.00,10,2,17,0.00
2013-5-2,76.0,68.1,60.0,55.0,51.4,47.0,65,55,45,0.00,40.00,11,5,17,0.00
2013-5-3,78.0,68.3,59.0,53.0,44.1,32.0,74,45,19,0.00,40.00,12,2,16,0.00
2013-5-4,72.0,64.1,56.0,46.0,41.8,37.0,56,44,36,0.00,40.00,0,0,0,0.00
2013-5-5,74.0,64.2,54.0,42.0,37.9,30.0,63,40,25,0.00,40.00,14,4,23,0.00
2013-5-6,69.0,61.7,57.0,58.0,46.9,30.0,91,60,26,0.00,40.00,8,1,10,0.00
2013-5-7,70.0,62.5,58.0,60.0,54.5,52.0,87,75,56,0.00,40.00,0,0,0,0.00
2013-5-8,73.0,64.2,58.0,55.0,52.2,51.0,83,66,46,0.00,40.00,0,0,0,0.00
2013-5-9,81.0,67.4,53.0,58.0,53.2,48.0,94,64,32,0.00,40.00,0,0,0,0.00
2013-5-10,73.0,63.7,59.0,62.0,57.5,-99.9,98,85,63,0.00,40.00,0,0,0,9.48
2013-5-11,62.0,54.5,46.0,61.0,49.5,39.0,97,83,67,0.00,40.00,0,0,0,0.00
2013-5-12,53.0,46.1,37.0,38.0,30.7,-99.9,94,59,38,0.00,40.00,0,0,0,0.00
2013-5-13,57.0,47.8,39.0,35.0,29.7,24.0,83,52,30,0.00,40.00,0,0,0,0.00
2013-5-14,76.0,58.8,43.0,55.0,40.4,30.0,66,52,36,0.00,40.00,0,0,0,0.00
2013-5-15,88.0,76.2,65.0,60.0,57.2,55.0,74,54,34,0.00,40.00,0,0,0,0.00
2013-5-16,77.0,66.2,65.0,64.0,39.9,-99.9,93,74,48,0.00,40.00,0,0,0,0.55
2013-5-17,81.0,68.8,62.0,64.0,56.4,-99.9,99,77,44,0.00,40.00,0,0,0,0.00
2013-5-18,80.0,70.6,63.0,64.0,58.5,53.0,77,66,53,0.00,40.00,0,0,0,0.00
2013-5-19,80.0,71.8,63.0,65.0,62.7,60.0,90,74,57,0.00,40.00,0,0,0,0.00
2013-5-20,71.0,69.2,68.0,65.0,65.0,65.0,90,86,82,0.00,40.00,0,0,0,0.00
2013-5-21,83.0,77.3,71.0,66.0,64.3,63.0,84,66,53,0.00,40.00,0,0,0,0.00
2013-5-22,81.0,75.4,66.0,65.0,61.5,60.0,94,63,52,0.00,40.00,0,-11,0,0.00
2013-5-23,76.0,64.6,49.0,64.0,57.7,43.0,95,80,49,0.00,40.00,0,0,0,0.00
2013-5-24,58.0,50.5,44.0,43.0,36.6,33.0,85,60,41,0.00,40.00,0,0,0,0.00
2013-5-25,65.0,53.0,39.0,41.0,37.4,33.0,87,58,37,0.00,40.00,0,0,0,0.00
2013-5-26,70.0,57.8,43.0,41.0,33.9,26.0,78,44,21,0.00,40.00,0,0,0,0.00
2013-5-27,69.0,59.3,52.0,51.0,43.5,34.0,84,56,42,0.00,40.00,0,0,0,0.00
2013-5-28,85.0,74.4,62.0,64.0,59.1,51.0,77,60,42,0.00,40.00,0,0,0,0.00
2013-5-29,90.0,78.4,69.0,61.0,58.8,53.0,69,52,31,0.00,40.00,0,0,0,0.00
2013-5-30,89.0,78.7,68.0,65.0,62.2,59.0,81,59,38,0.00,40.00,0,0,0,0.00
2013-5-31,89.0,75.9,67.0,67.0,63.0,60.0,95,66,43,0.00,40.00,0,0,0,1.10
2013-6-1,84.0,75.7,67.0,69.0,65.4,64.0,97,72,52,0.00,40.00,0,0,0,0.00
2013-6-2,77.0,71.2,66.0,69.0,59.8,-99.9,98,72,50,0.00,40.00,0,0,0,0.00
2013-6-3,67.0,62.8,58.0,59.0,52.8,46.0,80,70,54,0.00,40.00,0,0,0,0.00
2013-6-4,76.0,63.4,49.0,49.0,43.0,36.0,66,48,36,0.00,40.00,0,0,0,0.00
2013-6-5,83.0,69.9,57.0,60.0,51.0,44.0,64,52,39,0.00,40.00,0,0,0,0.00
2013-6-6,73.0,67.2,61.0,67.0,63.9,58.0,97,89,61,0.00,40.00,0,0,0,4.44
2013-6-7,70.0,61.1,56.0,58.0,54.9,52.0,95,80,59,0.00,40.00,0,0,0,0.00
2013-6-8,76.0,66.0,56.0,57.0,53.8,51.0,91,66,45,0.00,40.00,0,0,0,0.00
2013-6-9,83.0,74.0,66.0,67.0,59.9,54.0,82,63,38,0.00,40.00,0,0,0,0.55
2013-6-10,79.0,69.3,66.0,67.0,65.0,62.0,98,87,56,0.00,40.00,0,0,0,0.55
2013-6-11,85.0,72.8,63.0,65.0,62.7,61.0,96,73,46,0.00,40.00,0,0,0,0.00
2013-6-12,88.0,78.9,69.0,73.0,68.6,63.0,85,71,58,0.00,40.00,0,0,0,0.00
2013-6-13,81.0,70.8,65.0,73.0,61.3,52.0,98,74,46,0.00,40.00,0,0,0,3.34
2013-6-14,76.0,68.5,60.0,57.0,55.3,52.0,87,64,44,0.00,40.00,0,0,0,0.00
2013-6-15,79.0,69.0,55.0,60.0,56.5,53.0,92,66,44,0.00,40.00,0,0,0,0.00
2013-6-16,77.0,72.3,68.0,67.0,63.9,60.0,90,75,63,0.00,40.00,0,0,0,0.00
2013-6-17,84.0,74.3,67.0,69.0,66.2,63.0,96,77,50,0.00,40.00,0,0,0,0.00
2013-6-18,81.0,72.3,63.0,68.0,63.8,54.0,93,75,49,0.00,40.00,0,0,0,1.10
2013-6-19,78.0,67.9,56.0,55.0,50.0,41.0,85,56,27,0.00,40.00,0,0,0,0.00
2013-6-20,85.0,69.4,59.0,55.0,51.1,48.0,72,54,34,0.00,40.00,0,0,0,0.00
2013-6-22,89.0,84.6,76.0,70.0,66.4,64.0,70,54,45,0.00,40.00,0,0,0,0.00
2013-6-23,91.0,79.2,68.0,69.0,65.5,61.0,90,65,43,0.00,40.00,0,0,0,0.00
2013-6-24,87.0,75.7,68.0,70.0,65.1,62.0,84,70,52,0.00,40.00,0,0,0,0.00
2013-6-25,91.0,80.9,69.0,73.0,69.6,65.0,91,70,52,0.00,40.00,0,0,0,0.00
2013-6-26,86.0,73.9,68.0,72.0,68.2,65.0,96,83,59,0.00,40.00,0,0,0,1.10
2013-6-27,84.0,73.8,67.0,71.0,68.1,66.0,98,84,57,0.00,40.00,0,0,0,3.39
2013-6-28,83.0,73.8,69.0,69.0,63.8,56.0,92,72,47,0.00,40.00,0,0,0,0.00
2013-6-29,81.0,70.2,63.0,65.0,61.4,59.0,91,74,54,0.00,40.00,0,0,0,0.00
2013-6-30,82.0,69.6,64.0,67.0,63.6,61.0,97,82,54,0.00,40.00,0,0,0,1.65
2013-7-1,83.0,70.8,65.0,68.0,63.7,59.0,96,79,46,0.00,40.00,0,0,0,0.00
2013-7-2,83.0,73.9,68.0,69.0,65.9,64.0,91,77,56,0.00,40.00,0,0,0,0.00
2013-7-3,83.0,75.9,70.0,71.0,68.3,66.0,91,78,58,0.00,40.00,0,0,0,0.00
2013-7-4,76.0,72.5,69.0,71.0,68.6,65.0,97,87,71,0.00,40.00,0,0,0,1.65
2013-7-5,79.0,70.7,67.0,71.0,68.1,66.0,98,92,67,0.00,40.00,0,0,0,3.34
2013-7-6,84.0,75.3,70.0,73.0,69.2,65.0,96,82,62,0.00,40.00,0,0,0,0.00
2013-7-7,82.0,73.0,67.0,67.0,64.5,59.0,92,75,57,0.00,40.00,0,0,0,0.00
2013-7-8,81.0,69.1,64.0,74.0,64.1,-99.9,98,87,74,0.00,40.00,0,0,0,2.75
2013-7-9,88.0,76.0,70.0,75.0,71.2,68.0,97,86,61,0.00,40.00,0,0,0,1.65
2013-7-10,88.0,72.5,67.0,76.0,65.9,-99.9,97,86,64,0.00,40.00,7,1,12,2.24
2013-7-11,78.0,71.0,65.0,66.0,61.7,53.0,96,74,49,0.00,40.00,12,5,18,0.00
2013-7-12,79.0,69.7,62.0,61.0,57.9,55.0,83,67,49,0.00,40.00,13,5,19,0.00
2013-7-13,85.0,76.9,65.0,66.0,64.2,60.0,85,66,52,0.00,40.00,10,4,19,0.00
2013-7-14,90.0,80.3,72.0,72.0,69.0,66.0,82,69,54,0.00,40.00,12,4,17,0.00
2013-7-15,92.0,81.8,75.0,72.0,69.5,67.0,79,67,45,0.00,40.00,6,3,12,0.00
2013-7-16,93.0,83.0,74.0,73.0,71.3,70.0,90,69,50,0.00,40.00,8,3,12,0.00
2013-7-17,93.0,83.7,75.0,75.0,71.3,68.0,89,68,46,0.00,40.00,8,3,12,0.00
2013-7-18,94.0,84.2,75.0,74.0,71.8,70.0,88,68,49,0.00,40.00,9,3,17,0.00
2013-7-19,92.0,81.7,75.0,75.0,72.7,67.0,91,75,54,0.00,40.00,13,5,22,0.00
2013-7-20,79.0,73.2,70.0,74.0,68.7,-99.9,97,88,73,0.00,40.00,11,3,18,0.00
2013-7-21,85.0,75.9,69.0,72.0,69.5,68.0,97,81,62,0.00,40.00,1,0,5,0.00
2013-7-22,76.0,72.9,68.0,71.0,69.6,68.0,99,90,82,0.00,40.00,0,0,0,3.89
2013-7-23,86.0,75.7,68.0,74.0,69.7,66.0,99,83,56,0.00,40.00,0,0,0,0.00
2013-7-24,74.0,69.4,63.0,67.0,58.2,52.0,90,68,49,0.00,40.00,0,0,0,0.00
2013-7-25,78.0,66.1,57.0,54.0,51.6,47.0,79,61,41,0.00,40.00,0,0,0,0.00
2013-7-26,81.0,70.2,58.0,61.0,57.1,53.0,88,64,45,0.00,40.00,0,0,0,0.00
2013-7-27,74.0,68.5,65.0,66.0,63.3,61.0,97,84,69,0.00,40.00,0,0,0,2.75
2013-7-28,72.0,65.0,56.0,62.0,53.5,47.0,95,68,45,0.00,40.00,0,0,0,0.00
2013-7-29,76.0,63.6,56.0,58.0,53.3,52.0,85,70,46,0.00,40.00,0,0,0,0.00
2013-7-30,79.0,68.8,60.0,60.0,57.0,55.0,88,68,46,0.00,40.00,0,0,0,0.00
2013-7-31,73.0,70.1,67.0,66.0,62.8,58.0,92,78,64,0.00,40.00,0,0,0,0.00
2013-8-1,82.0,72.3,67.0,67.0,63.5,58.0,98,76,47,0.00,40.00,0,0,0,0.00
2013-8-2,80.0,71.1,61.0,65.0,60.4,56.0,95,70,49,0.00,40.00,0,0,0,0.00
2013-8-3,80.0,72.0,65.0,68.0,63.0,58.0,98,75,48,0.00,40.00,0,0,0,2.20
2013-8-4,76.0,68.3,61.0,61.0,56.0,51.0,94,67,44,0.00,40.00,0,0,0,0.00
2013-8-5,76.0,65.5,56.0,58.0,55.0,53.0,90,70,46,0.00,40.00,0,0,0,0.00
2013-8-6,82.0,72.6,65.0,62.0,58.6,56.0,76,63,47,0.00,40.00,0,0,0,0.00
2013-8-7,87.0,76.2,69.0,73.0,67.4,62.0,83,74,55,0.00,40.00,0,0,0,0.00
2013-8-8,85.0,75.1,71.0,73.0,71.7,69.0,98,89,66,0.00,40.00,0,0,0,0.00
2013-8-9,80.0,73.5,68.0,71.0,66.1,60.0,98,80,52,0.00,40.00,0,0,0,1.65
2013-8-10,83.0,76.1,67.0,67.0,64.4,62.0,88,68,50,0.00,40.00,0,0,0,0.00
2013-8-11,85.0,75.0,66.0,70.0,66.1,63.0,93,75,58,0.00,40.00,0,0,0,0.00
2013-8-21,84.0,74.1,67.0,70.0,64.3,62.0,83,72,55,0.00,40.00,0,0,0,0.00
2013-8-22,85.0,74.3,65.0,72.0,66.3,62.0,93,77,54,0.00,40.00,0,0,0,0.00
2013-8-23,84.0,75.1,69.0,69.0,64.2,55.0,97,71,46,0.00,40.00,0,0,0,1.10
2013-8-24,83.0,73.3,64.0,60.0,56.3,53.0,70,56,40,0.00,40.00,0,0,0,0.00
2013-8-25,84.0,72.3,62.0,63.0,55.6,-99.9,85,60,42,0.00,40.00,0,0,0,0.00
2013-8-26,88.0,75.8,64.0,69.0,63.1,58.0,80,66,47,0.00,40.00,0,0,0,0.00
2013-8-27,80.0,74.6,70.0,72.0,68.9,67.0,92,83,71,0.00,40.00,0,0,0,0.00
2013-10-6,79.0,69.2,53.0,68.0,64.5,51.0,98,86,58,0.00,40.00,0,0,0,4.40
2013-10-7,61.0,53.3,47.0,52.0,45.4,40.0,97,76,49,0.00,40.00,0,0,0,2.20
2013-10-8,68.0,54.0,43.0,47.0,44.0,41.0,96,72,41,0.00,40.00,0,0,0,0.00
2013-10-9,71.0,60.8,51.0,47.0,43.9,41.0,75,56,35,0.00,40.00,0,0,0,0.00
2013-10-10,75.0,61.0,50.0,53.0,44.2,40.0,77,55,34,0.00,40.00,0,0,0,0.00
2013-10-11,77.0,64.6,51.0,54.0,47.5,44.0,81,55,34,0.00,40.00,0,0,0,0.00
2013-10-12,73.0,63.7,55.0,58.0,56.0,52.0,93,77,59,0.00,40.00,0,0,0,0.00
2013-10-13,72.0,62.9,60.0,60.0,55.4,-99.9,90,79,65,0.00,40.00,0,0,0,0.00
2013-10-14,72.0,60.7,50.0,52.0,49.1,46.0,89,67,48,0.00,40.00,0,0,0,0.00
2013-10-15,71.0,60.8,51.0,62.0,55.9,48.0,95,84,71,0.00,40.00,0,0,0,0.55
2013-10-19,50.0,46.6,41.0,47.0,42.1,38.0,95,84,72,0.00,40.00,0,0,0,1.10
2013-10-20,61.0,47.4,37.0,41.0,36.6,-99.9,95,71,43,0.00,40.00,0,0,0,0.00
2013-10-21,66.0,53.3,43.0,47.0,38.3,36.0,81,59,34,0.00,40.00,0,0,0,0.00
2013-10-22,54.0,44.5,36.0,48.0,31.7,26.0,91,63,37,0.00,40.00,0,0,0,3.30
2013-10-23,46.0,40.1,35.0,38.0,35.2,30.0,96,83,53,0.00,40.00,0,0,0,2.20
2013-10-24,44.0,38.6,34.0,34.0,30.4,25.0,89,73,49,0.00,40.00,14,4,22,0.00
2013-10-25,49.0,38.3,30.0,31.0,28.2,25.0,92,69,41,0.00,40.00,12,4,20,0.00
2013-10-26,48.0,40.4,32.0,34.0,27.8,25.0,75,61,43,0.00,40.00,14,6,24,0.00
2013-10-27,55.0,42.1,32.0,35.0,29.8,-99.9,93,68,41,0.00,40.00,9,2,14,0.00
2013-10-28,60.0,45.5,33.0,38.0,30.8,-99.9,89,64,37,0.00,40.00,7,3,12,0.00
2013-10-29,60.0,51.0,41.0,40.0,37.7,35.0,86,62,40,0.00,40.00,7,3,11,0.00
2013-10-30,64.0,57.0,51.0,58.0,47.8,37.0,94,72,55,0.00,40.00,1,0,4,0.00
2013-10-31,66.0,62.6,60.0,60.0,57.6,55.0,96,84,69,0.00,40.00,0,0,0,1.10
2013-11-6,69.0,57.9,48.0,59.0,45.0,33.0,97,64,42,0.00,40.00,0,0,0,0.55
2013-11-7,51.0,43.7,39.0,49.0,32.6,23.0,93,67,42,0.00,40.00,0,0,0,0.55
2013-11-8,46.0,39.5,35.0,33.0,29.6,25.0,85,69,44,0.00,40.00,0,0,0,0.00
2013-11-9,60.0,46.8,37.0,34.0,27.1,-99.9,73,50,34,0.00,40.00,0,0,0,0.00
2013-11-10,48.0,43.1,32.0,37.0,29.9,26.0,84,60,45,0.00,40.00,0,0,0,0.00
2013-11-11,50.0,40.3,30.0,40.0,31.7,26.0,93,73,51,0.00,40.00,10,3,17,2.75
2013-11-12,33.0,29.6,26.0,32.0,21.9,18.0,93,73,60,0.00,40.00,12,7,20,1.69
2013-12-8,31.0,24.4,19.0,29.0,19.2,11.0,95,80,69,0.00,40.00,0,0,3,0.55
2013-12-9,34.0,31.1,26.0,33.0,25.7,17.0,97,81,69,0.00,40.00,2,0,22,0.00
2013-12-10,26.0,22.4,19.0,19.0,14.5,10.0,91,72,57,0.00,40.00,6,1,26,9.52
2013-12-11,33.0,22.2,14.0,19.0,13.8,9.0,81,70,57,0.00,40.00,2,0,19,0.00
2013-12-12,19.0,16.3,12.0,10.0,3.9,-1.0,76,58,41,0.00,40.00,1,0,11,0.00
2013-12-13,34.0,26.6,16.0,21.0,13.9,6.0,66,58,52,0.00,40.00,1,0,9,1.10
2013-12-14,37.0,33.4,30.0,37.0,30.3,-99.9,97,93,90,0.00,40.00,0,0,6,10.57